Time;durP1;ratioP1;P1;durP2;ratioP2;P2;SDS_P1;SDS_P2;PMS_P1;PMS_P2;Temp;Humidity;BMP_temperature;BMP_pressure;BME280_temperature;BME280_humidity;BME280_pressure;Samples;Min_cycle;Max_cycle;Signal;HPM_P1;HPM_P2
2022/05/03 00:01:36;;;;;;;4.47;3.55;;;;;;;10.77;67.44;94428.47;4128486;28;20514;-53
2022/05/03 00:04:00;;;;;;;5.15;3.70;;;;;;;10.80;67.29;94427.34;4127852;28;20060;-50
2022/05/03 00:06:32;;;;;;;5.45;3.53;;;;;;;10.85;67.98;94425.84;4130337;28;20254;-54
2022/05/03 00:08:43;;;;;;;6.25;3.88;;;;;;;10.89;68.37;94428.97;4157140;28;20049;-50
2022/05/03 00:10:56;;;;;;;4.43;3.65;;;;;;;10.85;67.46;94430.28;4144529;28;20144;-54
2022/05/03 00:13:03;;;;;;;6.32;3.63;;;;;;;10.88;67.99;94424.69;4142187;28;20046;-53
2022/05/03 00:15:05;;;;;;;4.53;3.70;;;;;;;10.75;68.54;94424.41;4144252;28;20264;-53
2022/05/03 00:17:08;;;;;;;4.40;3.25;;;;;;;10.66;67.27;94427.03;4144118;28;20583;-54
2022/05/03 00:19:10;;;;;;;3.67;3.10;;;;;;;10.66;67.23;94428.84;4143851;28;20435;-54
2022/05/03 00:21:12;;;;;;;5.38;3.38;;;;;;;10.68;67.04;94423.44;4144076;28;20045;-51
2022/05/03 00:23:14;;;;;;;4.50;3.10;;;;;;;10.53;67.83;94424.09;4142719;28;20124;-53
2022/05/03 00:25:16;;;;;;;4.10;3.42;;;;;;;10.52;66.83;94419.03;4144059;28;20116;-53
2022/05/03 00:27:18;;;;;;;4.28;3.10;;;;;;;10.49;67.16;94420.19;4143935;28;20058;-52
2022/05/03 00:29:20;;;;;;;4.50;3.03;;;;;;;10.58;67.98;94429.69;4126486;28;20188;-52
2022/05/03 00:31:23;;;;;;;4.05;3.30;;;;;;;10.60;66.80;94421.63;4142431;28;20073;-53
2022/05/03 00:33:25;;;;;;;7.22;3.75;;;;;;;10.52;68.81;94421.63;4143623;28;20060;-52
2022/05/03 00:35:29;;;;;;;6.35;3.47;;;;;;;10.57;68.07;94419.34;4143006;28;20053;-51
2022/05/03 00:37:31;;;;;;;3.85;3.45;;;;;;;10.61;67.68;94420.66;4143714;28;20131;-51
2022/05/03 00:39:32;;;;;;;4.18;3.08;;;;;;;10.54;68.02;94423.13;4142025;28;20125;-51
2022/05/03 00:42:11;;;;;;;4.80;3.38;;;;;;;10.55;67.48;94430.00;4139502;28;20054;-55
2022/05/03 00:46:59;;;;;;;4.85;3.20;;;;;;;10.39;68.60;94433.44;4143938;28;20053;-55
2022/05/03 00:49:25;;;;;;;3.75;3.00;;;;;;;10.39;68.60;94424.75;4141762;28;20092;-54
2022/05/03 00:51:47;;;;;;;3.75;2.78;;;;;;;10.44;68.75;94427.72;4143742;28;20177;-51
2022/05/03 00:53:55;;;;;;;3.85;3.05;;;;;;;10.48;68.23;94422.97;4138351;28;20073;-51
2022/05/03 00:56:12;;;;;;;5.15;3.67;;;;;;;10.50;68.51;94418.41;4143635;28;20050;-51
2022/05/03 00:58:26;;;;;;;4.30;3.08;;;;;;;10.51;68.24;94422.63;4143926;28;20509;-49
2022/05/03 01:00:28;;;;;;;4.35;3.42;;;;;;;10.43;67.99;94421.66;4143538;28;20275;-53
2022/05/03 01:02:58;;;;;;;4.18;3.28;;;;;;;10.46;67.96;94420.50;4143594;28;20114;-54
2022/05/03 01:05:07;;;;;;;4.65;3.20;;;;;;;10.46;68.59;94420.50;4143472;28;20046;-53
2022/05/03 01:07:31;;;;;;;4.57;2.92;;;;;;;10.44;68.58;94420.69;4143313;28;20057;-53
2022/05/03 01:09:41;;;;;;;3.97;2.90;;;;;;;10.40;68.63;94415.94;4138266;28;20410;-52
2022/05/03 01:11:54;;;;;;;3.90;3.38;;;;;;;10.43;68.24;94415.59;4143179;28;20127;-53
2022/05/03 01:14:11;;;;;;;3.95;3.00;;;;;;;10.45;67.91;94413.63;4143392;28;20128;-54
2022/05/03 01:16:31;;;;;;;3.58;2.80;;;;;;;10.46;67.72;94410.03;4143139;28;20273;-50
2022/05/03 01:19:10;;;;;;;2.55;2.22;;;;;;;10.29;67.88;94408.38;4142913;28;20102;-54
2022/05/03 01:21:19;;;;;;;4.53;2.92;;;;;;;10.17;68.62;94413.13;4141720;28;20046;-52
2022/05/03 01:23:26;;;;;;;5.03;3.00;;;;;;;10.04;68.95;94405.75;4141742;28;20054;-52
2022/05/03 01:25:43;;;;;;;4.68;3.13;;;;;;;9.99;69.04;94408.06;4142409;28;20123;-51
2022/05/03 01:28:04;;;;;;;5.68;2.70;;;;;;;10.02;68.42;94407.72;4143271;28;20076;-56
2022/05/03 01:30:09;;;;;;;3.83;2.67;;;;;;;10.08;68.45;94404.44;4143367;28;20053;-54
2022/05/03 01:32:12;;;;;;;5.20;3.00;;;;;;;10.16;68.81;94401.84;4138703;28;20120;-53
2022/05/03 01:34:19;;;;;;;4.45;3.40;;;;;;;10.13;68.27;94401.34;4138910;28;20042;-51
2022/05/03 01:36:39;;;;;;;3.30;2.60;;;;;;;10.11;68.91;94400.69;4143265;28;20053;-51
2022/05/03 01:38:59;;;;;;;4.18;2.50;;;;;;;10.11;68.66;94388.44;4141671;28;20108;-49
2022/05/03 01:41:10;;;;;;;4.68;3.72;;;;;;;10.15;68.65;94391.53;4141818;28;20050;-54
2022/05/03 01:43:30;;;;;;;7.18;2.72;;;;;;;10.20;69.49;94391.88;4139922;28;20069;-53
2022/05/03 01:45:41;;;;;;;5.05;2.97;;;;;;;10.24;69.59;94385.31;4143121;28;20372;-53
2022/05/03 01:48:08;;;;;;;4.70;2.95;;;;;;;10.35;68.88;94389.44;4157657;28;20194;-50
2022/05/03 01:50:27;;;;;;;4.55;3.08;;;;;;;10.37;69.22;94380.44;4142805;28;20156;-54
2022/05/03 01:53:00;;;;;;;3.63;2.70;;;;;;;10.33;68.78;94384.34;4142931;28;20108;-53
2022/05/03 01:55:04;;;;;;;5.70;3.05;;;;;;;10.26;69.23;94380.75;4142772;28;20049;-50
2022/05/03 01:57:28;;;;;;;4.15;2.90;;;;;;;10.27;69.22;94378.94;4142825;28;20450;-55
2022/05/03 01:59:57;;;;;;;4.03;3.13;;;;;;;10.31;68.45;94382.91;4142655;28;20457;-52
2022/05/03 02:02:43;;;;;;;5.40;3.45;;;;;;;10.27;68.68;94384.97;4142829;28;20062;-53
2022/05/03 02:04:59;;;;;;;3.80;2.95;;;;;;;10.23;68.51;94387.09;4123569;28;20046;-52
2022/05/03 02:07:08;;;;;;;5.95;3.50;;;;;;;10.18;69.31;94378.94;4123728;28;20146;-53
2022/05/03 02:09:10;;;;;;;3.95;3.30;;;;;;;10.17;69.65;94379.09;4125337;28;20191;-54
2022/05/03 02:11:38;;;;;;;4.25;3.42;;;;;;;10.16;69.18;94383.50;4141987;28;20053;-54
2022/05/03 02:16:27;;;;;;;6.22;3.55;;;;;;;10.16;69.66;94378.28;4142615;28;20120;-53
2022/05/03 02:18:46;;;;;;;5.93;3.95;;;;;;;10.20;69.57;94376.16;4142221;28;20054;-52
2022/05/03 02:21:13;;;;;;;5.22;4.00;;;;;;;10.24;69.43;94377.47;4142543;28;20045;-54
2022/05/03 02:23:38;;;;;;;4.75;4.00;;;;;;;10.22;69.60;94372.38;4141021;28;20046;-53
2022/05/03 02:26:17;;;;;;;5.25;3.80;;;;;;;10.11;69.65;94374.50;4141138;28;20057;-55
2022/05/03 02:28:38;;;;;;;6.40;3.90;;;;;;;10.10;68.51;94373.69;4142457;28;20124;-52
2022/05/03 02:30:41;;;;;;;5.82;3.92;;;;;;;10.04;68.99;94372.56;4142022;28;20076;-53
2022/05/03 02:32:47;;;;;;;4.95;4.20;;;;;;;10.01;69.96;94374.69;4142594;28;20084;-53
2022/05/03 02:34:54;;;;;;;4.95;4.00;;;;;;;10.02;69.46;94369.28;4142415;28;20142;-53
2022/05/03 02:37:19;;;;;;;5.50;3.47;;;;;;;10.05;69.84;94368.16;4142283;28;20124;-54
2022/05/03 02:39:26;;;;;;;6.78;3.50;;;;;;;10.03;68.70;94368.31;4140825;28;20057;-53
2022/05/03 02:41:40;;;;;;;4.88;3.92;;;;;;;10.09;69.22;94364.22;4141942;28;20053;-53
2022/05/03 02:43:42;;;;;;;;;;;;;;;10.18;69.88;94365.84;4138885;28;20088;-50
2022/05/03 02:45:50;;;;;;;4.75;3.80;;;;;;;10.27;69.97;94366.66;4156956;28;19998;-52
2022/05/03 02:48:09;;;;;;;5.00;4.00;;;;;;;10.20;68.26;94363.06;4152012;28;20050;-51
2022/05/03 02:50:21;;;;;;;6.10;4.32;;;;;;;10.13;69.41;94359.47;4138463;28;20119;-49
2022/05/03 02:52:49;;;;;;;5.57;3.85;;;;;;;10.10;68.93;94360.59;4141890;28;20064;-54
2022/05/03 02:55:06;;;;;;;4.95;3.67;;;;;;;10.13;69.86;94369.94;4141199;28;20092;-51
2022/05/03 02:57:23;;;;;;;6.00;4.18;;;;;;;10.15;69.72;94362.72;4142505;28;20092;-51
2022/05/03 03:02:36;;;;;;;5.15;4.25;;;;;;;10.12;69.65;94363.88;4140999;28;20191;-50
2022/05/03 03:04:54;;;;;;;7.10;4.32;;;;;;;9.96;70.38;94362.09;4138986;28;20097;-53
2022/05/03 03:06:56;;;;;;;6.90;4.85;;;;;;;9.91;70.94;94361.75;4145406;28;20062;-51
2022/05/03 03:08:59;;;;;;;4.88;4.38;;;;;;;9.89;70.50;94360.28;4139125;28;20530;-52
2022/05/03 03:11:07;;;;;;;7.45;4.47;;;;;;;9.95;70.25;94365.69;4141920;28;20054;-51
2022/05/03 03:13:20;;;;;;;6.40;4.03;;;;;;;9.97;70.50;94368.94;4141860;28;20049;-52
2022/05/03 03:15:29;;;;;;;4.93;3.90;;;;;;;9.95;70.09;94376.16;4140471;28;20147;-54
2022/05/03 03:17:40;;;;;;;5.20;4.43;;;;;;;9.99;70.88;94374.03;4141993;28;20116;-53
2022/05/03 03:20:07;;;;;;;5.55;4.18;;;;;;;10.02;70.04;94376.31;4141651;28;20046;-52
2022/05/03 03:22:14;;;;;;;5.80;4.50;;;;;;;10.07;70.21;94366.19;4141845;28;20050;-53
2022/05/03 03:24:18;;;;;;;6.55;5.20;;;;;;;10.11;69.69;94366.66;4140425;28;20046;-53
2022/05/03 03:26:20;;;;;;;6.30;4.30;;;;;;;10.11;69.05;94367.50;4140419;28;20406;-50
2022/05/03 03:28:22;;;;;;;5.10;4.05;;;;;;;10.14;69.74;94363.72;4140545;28;20054;-52
2022/05/03 03:30:24;;;;;;;5.07;4.00;;;;;;;10.22;69.61;94368.97;4141919;28;20216;-52
2022/05/03 03:32:27;;;;;;;7.10;4.45;;;;;;;10.25;68.83;94372.03;4141835;28;20111;-49
2022/05/03 03:34:29;;;;;;;5.80;4.03;;;;;;;10.27;69.12;94373.69;4141340;28;20054;-54
2022/05/03 03:36:31;;;;;;;4.90;4.20;;;;;;;10.20;67.53;94379.59;4156682;28;20076;-52
2022/05/03 03:38:39;;;;;;;7.07;4.38;;;;;;;10.12;67.80;94376.16;4140472;28;20271;-53
2022/05/03 03:40:48;;;;;;;6.82;4.65;;;;;;;10.15;69.06;94375.81;4140330;28;20097;-50
2022/05/03 03:42:50;;;;;;;5.30;4.10;;;;;;;10.16;69.09;94367.81;4141500;28;20604;-54
2022/05/03 03:44:52;;;;;;;6.03;4.38;;;;;;;10.17;69.20;94372.03;4138080;28;20057;-53
2022/05/03 03:46:55;;;;;;;6.32;4.70;;;;;;;10.25;68.86;94366.81;4144342;28;20057;-54
2022/05/03 03:48:56;;;;;;;5.70;4.32;;;;;;;10.25;68.91;94372.03;4130484;28;20066;-54
2022/05/03 03:50:59;;;;;;;4.47;3.85;;;;;;;10.35;68.03;94377.16;4128301;28;20054;-53
2022/05/03 03:53:01;;;;;;;5.07;4.30;;;;;;;10.42;68.25;94378.13;4141739;28;20160;-53
2022/05/03 03:55:05;;;;;;;6.85;4.35;;;;;;;10.42;68.04;94377.31;4142943;28;20353;-52
2022/05/03 03:57:08;;;;;;;8.05;4.75;;;;;;;10.37;67.45;94383.03;4144531;28;20061;-50
2022/05/03 03:59:10;;;;;;;4.93;4.43;;;;;;;10.16;68.45;94382.69;4144412;28;20521;-55
2022/05/03 04:01:12;;;;;;;5.43;4.35;;;;;;;10.08;67.83;94386.13;4143009;28;20534;-54
2022/05/03 04:03:14;;;;;;;5.45;4.20;;;;;;;9.89;68.00;94383.81;4144151;28;20482;-52
2022/05/03 04:05:19;;;;;;;6.25;4.97;;;;;;;9.96;69.58;94387.41;4143968;28;20421;-53
2022/05/03 04:07:21;;;;;;;5.95;4.18;;;;;;;9.94;69.32;94384.19;4144307;28;20053;-53
2022/05/03 04:09:23;;;;;;;6.45;4.20;;;;;;;9.86;69.75;94384.97;4142779;28;20050;-52
2022/05/03 04:11:24;;;;;;;5.25;3.95;;;;;;;9.83;69.60;94388.75;4143551;28;20111;-52
2022/05/03 04:13:26;;;;;;;6.78;3.85;;;;;;;9.91;69.46;94384.50;4144126;28;20068;-54
2022/05/03 04:15:30;;;;;;;5.15;3.58;;;;;;;9.92;69.47;94378.28;4143871;28;20053;-52
2022/05/03 04:17:32;;;;;;;7.40;4.18;;;;;;;10.03;69.50;94385.81;4144302;28;20053;-53
2022/05/03 04:19:35;;;;;;;5.90;3.88;;;;;;;10.11;68.74;94390.22;4143613;28;20061;-53
2022/05/03 04:21:37;;;;;;;5.90;3.55;;;;;;;10.15;68.52;94383.66;4143874;28;20123;-57
2022/05/03 04:23:39;;;;;;;5.57;3.90;;;;;;;10.15;68.84;94387.13;4142556;28;20545;-50
2022/05/03 04:25:40;;;;;;;5.47;4.15;;;;;;;10.17;68.63;94387.75;4144270;28;20073;-51
2022/05/03 04:27:42;;;;;;;5.85;4.20;;;;;;;10.30;68.86;94389.09;4144133;28;20073;-50
2022/05/03 04:29:45;;;;;;;7.03;4.47;;;;;;;10.27;68.43;94394.66;4143872;28;20194;-51
2022/05/03 04:31:47;;;;;;;10.65;4.15;;;;;;;10.31;68.55;94390.75;4144019;28;20049;-52
2022/05/03 04:33:49;;;;;;;5.47;3.90;;;;;;;10.31;68.21;94396.78;4143263;28;20054;-54
2022/05/03 04:35:51;;;;;;;5.18;4.35;;;;;;;10.28;67.63;94398.88;4143993;28;20048;-53
2022/05/03 04:37:53;;;;;;;4.45;3.53;;;;;;;10.29;68.06;94398.75;4141238;28;20145;-54
2022/05/03 04:39:55;;;;;;;5.75;4.15;;;;;;;10.23;68.64;94405.44;4143574;28;20060;-48
2022/05/03 04:41:57;;;;;;;5.72;4.13;;;;;;;10.21;69.32;94396.91;4143839;28;20129;-50
2022/05/03 04:43:59;;;;;;;5.18;4.28;;;;;;;10.08;68.50;94401.84;4141609;28;20068;-55
2022/05/03 04:46:01;;;;;;;5.40;4.32;;;;;;;10.03;68.55;94411.97;4141057;28;20088;-54
2022/05/03 04:48:04;;;;;;;6.28;3.70;;;;;;;10.05;68.74;94405.59;4142098;28;20053;-50
2022/05/03 04:50:06;;;;;;;5.05;3.50;;;;;;;10.02;67.58;94403.31;4143635;28;20085;-52
2022/05/03 04:52:08;;;;;;;6.65;3.90;;;;;;;10.04;66.61;94403.13;4143724;28;20466;-56
2022/05/03 04:54:10;;;;;;;5.13;3.53;;;;;;;10.07;67.45;94397.59;4141436;28;20054;-53
2022/05/03 04:56:23;;;;;;;6.75;3.97;;;;;;;10.14;67.26;94401.19;4143644;28;20088;-52
2022/05/03 04:58:25;;;;;;;4.32;3.40;;;;;;;10.14;66.80;94395.94;4143667;28;20081;-51
2022/05/03 05:00:27;;;;;;;4.63;3.10;;;;;;;10.16;66.29;94396.59;4143394;28;20062;-51
2022/05/03 05:02:29;;;;;;;5.18;3.85;;;;;;;10.20;66.19;94404.97;4142502;28;20075;-53
2022/05/03 05:04:32;;;;;;;5.93;3.83;;;;;;;10.32;66.63;94405.47;4143052;28;20104;-52
2022/05/03 05:06:34;;;;;;;6.40;3.90;;;;;;;10.41;66.36;94404.47;4143226;28;20522;-50
2022/05/03 05:08:41;;;;;;;5.18;3.40;;;;;;;10.42;65.64;94398.25;4142016;28;20192;-52
2022/05/03 05:10:43;;;;;;;6.75;3.67;;;;;;;10.43;65.95;94408.56;4143576;28;20143;-53
2022/05/03 05:12:45;;;;;;;6.53;4.00;;;;;;;10.47;66.59;94406.44;4143295;28;20196;-53
2022/05/03 05:14:47;;;;;;;7.47;4.45;;;;;;;10.55;66.96;94409.03;4143152;28;20172;-53
2022/05/03 05:16:52;;;;;;;7.93;4.05;;;;;;;10.61;64.63;94397.91;4142941;28;20050;-53
2022/05/03 05:18:54;;;;;;;8.10;4.00;;;;;;;10.71;64.50;94395.13;4142921;28;20096;-50
2022/05/03 05:20:56;;;;;;;5.95;3.72;;;;;;;10.71;64.20;94407.38;4143128;28;20049;-54
2022/05/03 05:23:01;;;;;;;7.32;3.58;;;;;;;10.64;64.82;94404.59;4141804;28;20058;-56
2022/05/03 05:25:24;;;;;;;5.68;3.40;;;;;;;10.63;64.53;94400.38;4143074;28;20042;-52
2022/05/03 05:27:26;;;;;;;5.65;3.53;;;;;;;10.69;65.27;94402.31;4143217;28;20050;-52
2022/05/03 05:29:28;;;;;;;9.95;3.40;;;;;;;10.74;64.66;94404.44;4142820;28;20491;-51
2022/05/03 05:31:30;;;;;;;4.63;3.53;;;;;;;10.78;63.57;94405.75;4142831;28;20053;-53
2022/05/03 05:33:32;;;;;;;5.97;3.83;;;;;;;10.78;63.86;94409.16;4142851;28;20120;-53
2022/05/03 05:35:34;;;;;;;8.63;4.20;;;;;;;10.90;65.17;94414.84;4143188;28;20041;-50
2022/05/03 05:37:36;;;;;;;4.97;3.83;;;;;;;10.89;63.94;94409.81;4141819;28;20494;-53
2022/05/03 05:39:37;;;;;;;5.32;3.67;;;;;;;10.90;63.68;94420.09;4141476;28;20196;-50
2022/05/03 05:41:39;;;;;;;4.75;3.17;;;;;;;10.87;62.69;94407.34;4142997;28;20156;-53
2022/05/03 05:43:42;;;;;;;3.97;2.63;;;;;;;10.80;61.91;94409.00;4142989;28;20556;-50
2022/05/03 05:45:44;;;;;;;5.03;3.15;;;;;;;10.89;61.42;94407.19;4139932;28;20057;-53
2022/05/03 05:47:46;;;;;;;4.35;2.72;;;;;;;10.91;60.73;94407.84;4126930;28;20118;-51
2022/05/03 05:49:48;;;;;;;3.47;2.78;;;;;;;10.97;60.60;94417.63;4126411;28;20112;-55
2022/05/03 05:53:31;;;;;;;4.38;2.88;;;;;;;10.95;60.96;94423.06;4126605;28;20465;-54
2022/05/03 05:54:17;;;;;;;4.78;2.50;;;;;;;10.96;58.94;94419.44;4125516;28;20482;-53
2022/05/03 05:56:19;;;;;;;5.80;3.03;;;;;;;11.09;59.69;94423.34;4126822;28;20054;-55
2022/05/03 05:58:21;;;;;;;3.92;2.20;;;;;;;11.12;59.31;94425.63;4126514;28;20521;-53
2022/05/03 06:00:23;;;;;;;6.55;2.65;;;;;;;11.24;58.58;94424.25;4126439;28;20057;-54
2022/05/03 06:02:25;;;;;;;6.00;3.03;;;;;;;11.28;59.30;94434.25;4141092;28;20053;-56
2022/05/03 06:04:29;;;;;;;5.57;2.25;;;;;;;11.35;58.87;94429.13;4125548;28;20066;-56
2022/05/03 06:06:36;;;;;;;4.07;2.60;;;;;;;11.44;58.50;94428.13;4127113;28;20061;-53
2022/05/03 06:08:38;;;;;;;5.18;2.53;;;;;;;11.42;57.50;94430.09;4139159;28;20052;-53
2022/05/03 06:10:39;;;;;;;4.20;2.35;;;;;;;11.34;57.53;94426.69;4142594;28;20246;-53
2022/05/03 06:12:41;;;;;;;5.18;2.58;;;;;;;11.36;58.25;94427.34;4142521;28;20065;-55
2022/05/03 06:14:43;;;;;;;8.13;2.92;;;;;;;11.47;58.54;94435.66;4142267;28;20131;-53
2022/05/03 06:16:49;;;;;;;6.50;3.30;;;;;;;11.50;58.13;94439.72;4142738;28;20630;-52
2022/05/03 06:18:51;;;;;;;4.50;2.35;;;;;;;11.46;58.11;94438.44;4142169;28;20058;-52
2022/05/03 06:20:52;;;;;;;4.03;2.55;;;;;;;11.52;58.04;94450.88;4142360;28;20431;-54
2022/05/03 06:22:54;;;;;;;7.00;2.70;;;;;;;11.65;58.57;94442.44;4141333;28;20049;-54
2022/05/03 06:24:56;;;;;;;5.07;2.40;;;;;;;11.58;58.12;94441.50;4142232;28;20135;-54
2022/05/03 06:26:58;;;;;;;4.70;2.50;;;;;;;11.57;57.97;94450.34;4142407;28;20053;-52
2022/05/03 06:29:01;;;;;;;4.85;2.50;;;;;;;11.63;57.76;94441.81;4142117;28;20569;-54
2022/05/03 06:31:03;;;;;;;4.68;2.40;;;;;;;11.65;57.21;94442.44;4142514;28;20494;-52
2022/05/03 06:33:05;;;;;;;5.50;2.30;;;;;;;11.46;57.07;94441.91;4141905;28;20096;-51
2022/05/03 06:35:07;;;;;;;4.90;2.40;;;;;;;11.45;57.31;94448.13;4142302;28;20108;-53
2022/05/03 06:37:09;;;;;;;3.00;2.40;;;;;;;11.53;57.03;94452.53;4142277;28;20476;-52
2022/05/03 06:39:11;;;;;;;3.58;2.20;;;;;;;11.43;57.73;94452.72;4141168;28;20070;-55
2022/05/03 06:41:13;;;;;;;3.28;2.22;;;;;;;11.63;56.92;94455.72;4142247;28;20061;-53
2022/05/03 06:43:15;;;;;;;3.72;2.30;;;;;;;11.71;57.01;94457.50;4142061;28;20413;-52
2022/05/03 06:45:17;;;;;;;6.43;2.85;;;;;;;11.71;56.91;94468.00;4142006;28;20072;-53
2022/05/03 06:47:19;;;;;;;4.55;2.28;;;;;;;11.67;56.47;94466.72;4140414;28;20074;-51
2022/05/03 06:49:20;;;;;;;4.00;2.22;;;;;;;11.74;56.92;94467.66;4141876;28;20058;-53
2022/05/03 06:51:22;;;;;;;3.45;2.40;;;;;;;11.73;57.08;94471.28;4142222;28;20057;-53
2022/05/03 06:53:24;;;;;;;3.80;2.33;;;;;;;11.83;57.16;94477.13;4141014;28;20477;-55
2022/05/03 06:55:25;;;;;;;3.92;2.55;;;;;;;11.81;56.88;94481.75;4142023;28;20212;-55
2022/05/03 06:57:28;;;;;;;3.20;2.33;;;;;;;11.87;57.00;94472.34;4142074;28;20100;-53
2022/05/03 06:59:30;;;;;;;4.28;2.45;;;;;;;11.92;57.20;94479.75;4141823;28;20682;-54
2022/05/03 07:01:32;;;;;;;7.70;2.45;;;;;;;12.11;57.44;94483.72;4142109;28;20073;-55
2022/05/03 07:03:33;;;;;;;6.10;2.47;;;;;;;12.24;57.50;94474.31;4141837;28;20132;-53
2022/05/03 07:05:36;;;;;;;8.70;2.90;;;;;;;12.39;57.32;94478.78;4141832;28;20317;-56
2022/05/03 07:07:39;;;;;;;7.40;2.72;;;;;;;12.45;57.02;94486.81;4142067;28;20367;-54
2022/05/03 07:09:41;;;;;;;8.07;2.65;;;;;;;12.38;56.03;94482.41;4140398;28;20124;-52
2022/05/03 07:11:43;;;;;;;4.68;2.53;;;;;;;12.18;55.79;94476.81;4141857;28;20066;-55
2022/05/03 07:13:45;;;;;;;4.05;2.80;;;;;;;12.07;57.24;94485.91;4141814;28;20053;-52
2022/05/03 07:15:54;;;;;;;4.95;2.72;;;;;;;12.04;57.40;94483.59;4142289;28;20057;-54
2022/05/03 07:22:46;;;;;;;7.05;2.50;;;;;;;11.85;57.83;94484.81;4128688;28;20604;-54
2022/05/03 07:24:49;;;;;;;4.55;2.80;;;;;;;11.98;57.87;94481.66;4127585;28;20046;-55
2022/05/03 07:26:51;;;;;;;5.45;3.03;;;;;;;12.04;57.82;94475.72;4128708;28;20634;-54
2022/05/03 07:28:53;;;;;;;5.93;3.28;;;;;;;12.14;58.07;94468.44;4128781;28;20111;-53
2022/05/03 07:30:56;;;;;;;5.47;2.97;;;;;;;12.12;57.04;94474.88;4128672;28;20105;-50
2022/05/03 07:32:58;;;;;;;4.67;2.80;;;;;;;12.04;57.57;94481.78;4130849;28;20123;-54
2022/05/03 07:34:59;;;;;;;4.38;3.00;;;;;;;11.99;58.04;94481.50;4144877;28;20381;-54
2022/05/03 07:37:02;;;;;;;4.93;2.90;;;;;;;12.03;57.40;94487.22;4144834;28;20413;-50
2022/05/03 07:39:03;;;;;;;8.18;3.17;;;;;;;11.97;57.25;94493.16;4143550;28;20320;-52
2022/05/03 07:41:06;;;;;;;4.05;3.20;;;;;;;11.87;57.58;94488.94;4144405;28;20111;-51
2022/05/03 07:43:08;;;;;;;7.25;4.70;;;;;;;11.89;58.10;94491.41;4144611;28;20054;-52
2022/05/03 07:45:09;;;;;;;7.38;3.90;;;;;;;11.94;57.97;94490.88;4144706;28;20058;-50
2022/05/03 07:47:11;;;;;;;6.60;3.92;;;;;;;11.96;59.44;94491.53;4143523;28;20446;-49
2022/05/03 07:49:13;;;;;;;7.85;3.58;;;;;;;11.91;59.02;94493.84;4137480;28;20046;-52
2022/05/03 07:51:17;;;;;;;7.15;3.80;;;;;;;11.98;58.58;94500.03;4144504;28;20128;-53
2022/05/03 07:53:18;;;;;;;;;;;;;;;12.01;57.75;94499.72;4143434;28;20118;-51
2022/05/03 07:55:20;;;;;;;5.53;3.80;;;;;;;12.09;57.55;94502.31;4144385;28;19925;-53
2022/05/03 07:57:24;;;;;;;5.03;3.30;;;;;;;12.06;57.79;94503.44;4144465;28;20147;-51
2022/05/03 07:59:25;;;;;;;4.43;3.00;;;;;;;12.08;57.51;94498.03;4144568;28;20449;-50
2022/05/03 08:01:27;;;;;;;6.32;3.08;;;;;;;12.11;57.90;94500.31;4144299;28;20502;-51
2022/05/03 08:03:29;;;;;;;3.92;2.92;;;;;;;12.06;57.09;94492.13;4143984;28;20086;-53
2022/05/03 08:05:31;;;;;;;4.43;2.90;;;;;;;12.07;57.29;94504.28;4143487;28;20339;-48
2022/05/03 08:07:32;;;;;;;3.78;2.83;;;;;;;12.07;56.75;94501.66;4144202;28;20054;-51
2022/05/03 08:09:37;;;;;;;4.45;2.90;;;;;;;12.12;57.29;94501.13;4142786;28;20181;-55
2022/05/03 08:11:39;;;;;;;3.53;2.65;;;;;;;11.99;57.93;94506.94;4143661;28;20058;-56
2022/05/03 08:13:43;;;;;;;3.70;3.05;;;;;;;11.94;58.11;94514.50;4142719;28;20145;-53
2022/05/03 08:15:44;;;;;;;5.15;3.70;;;;;;;11.98;58.75;94508.75;4144056;28;20053;-51
2022/05/03 08:17:47;;;;;;;7.47;3.97;;;;;;;12.02;59.59;94512.69;4143925;28;20145;-54
2022/05/03 08:19:48;;;;;;;7.20;3.60;;;;;;;11.97;59.56;94512.34;4143927;28;20667;-47
2022/05/03 08:21:52;;;;;;;4.25;2.83;;;;;;;12.07;58.92;94520.84;4144102;28;20081;-54
2022/05/03 08:23:54;;;;;;;6.30;3.05;;;;;;;12.15;59.27;94517.34;4142910;28;20058;-53
2022/05/03 08:25:56;;;;;;;5.53;2.88;;;;;;;12.26;59.65;94516.97;4143990;28;20120;-51
2022/05/03 08:27:58;;;;;;;7.25;3.20;;;;;;;12.30;59.70;94520.03;4143303;28;20108;-52
2022/05/03 08:30:00;;;;;;;3.65;2.70;;;;;;;12.31;58.96;94510.38;4144023;28;20058;-53
2022/05/03 08:32:02;;;;;;;4.88;3.05;;;;;;;12.35;59.06;94522.97;4143907;28;20237;-50
2022/05/03 08:34:04;;;;;;;9.18;2.50;;;;;;;12.43;59.22;94528.19;4142185;28;20045;-51
2022/05/03 08:36:06;;;;;;;5.28;2.63;;;;;;;12.50;59.13;94518.59;4144034;28;20056;-51
2022/05/03 08:42:48;;;;;;;3.85;2.72;;;;;;;12.59;58.92;94531.69;4143685;28;20157;-48
2022/05/03 08:44:50;;;;;;;3.53;2.47;;;;;;;12.63;58.57;94528.53;4143591;28;20057;-51
2022/05/03 08:46:54;;;;;;;3.42;2.50;;;;;;;12.69;58.82;94534.88;4143492;28;20058;-51
2022/05/03 08:49:03;;;;;;;3.92;2.42;;;;;;;12.57;57.84;94528.41;4141796;28;20057;-52
2022/05/03 08:51:05;;;;;;;5.18;2.58;;;;;;;12.56;59.15;94534.66;4143560;28;20049;-55
2022/05/03 08:53:07;;;;;;;2.97;2.10;;;;;;;12.53;57.41;94543.72;4140816;28;20139;-53
2022/05/03 08:55:11;;;;;;;3.83;2.38;;;;;;;12.36;57.75;94539.56;4143629;28;20363;-53
2022/05/03 08:57:13;;;;;;;4.20;2.20;;;;;;;12.33;58.29;94537.28;4143483;28;20045;-49
2022/05/03 08:59:15;;;;;;;5.95;2.78;;;;;;;12.49;59.01;94539.78;4143446;28;20056;-51
2022/05/03 09:01:18;;;;;;;4.57;2.40;;;;;;;12.58;57.31;94530.03;4143570;28;20046;-53
2022/05/03 09:03:20;;;;;;;3.65;2.33;;;;;;;12.64;58.17;94535.41;4142890;28;20081;-53
2022/05/03 09:05:23;;;;;;;4.55;2.60;;;;;;;12.67;57.94;94537.69;4143214;28;20054;-53
2022/05/03 09:07:26;;;;;;;5.68;1.75;;;;;;;12.76;57.47;94535.03;4142990;28;20050;-55
2022/05/03 09:09:28;;;;;;;3.92;2.05;;;;;;;12.95;57.16;94533.69;4141641;28;20525;-56
2022/05/03 09:11:53;;;;;;;3.88;2.17;;;;;;;13.05;56.15;94542.16;4142843;28;20069;-51
2022/05/03 09:13:55;;;;;;;;;;;;;;;12.87;56.52;94539.84;4143486;28;20061;-54
2022/05/03 09:16:09;;;;;;;3.72;2.30;;;;;;;12.94;56.09;94538.13;4132335;28;19921;-54
2022/05/03 09:18:24;;;;;;;3.35;2.00;;;;;;;12.85;55.72;94533.94;4126917;28;20058;-57
2022/05/03 09:25:15;;;;;;;4.25;2.42;;;;;;;12.52;57.46;94538.63;4109787;28;20082;-50
2022/05/03 09:27:17;;;;;;;2.35;1.95;;;;;;;12.74;56.66;94537.00;4109518;28;20161;-56
2022/05/03 09:29:19;;;;;;;4.57;2.13;;;;;;;13.00;56.01;94537.44;4111015;28;20047;-55
2022/05/03 09:31:39;;;;;;;4.10;2.45;;;;;;;13.25;56.22;94535.41;4110921;28;20470;-55
2022/05/03 09:33:41;;;;;;;2.60;1.90;;;;;;;13.44;54.66;94528.84;4110314;28;20062;-53
2022/05/03 09:35:42;;;;;;;3.55;2.20;;;;;;;13.08;54.07;94529.47;4110702;28;20484;-54
2022/05/03 09:37:48;;;;;;;2.85;2.17;;;;;;;13.08;55.04;94534.75;4110678;28;20059;-55
2022/05/03 09:39:50;;;;;;;2.78;2.00;;;;;;;13.22;54.42;94527.84;4110347;28;20058;-55
2022/05/03 09:42:06;;;;;;;3.43;2.27;;;;;;;13.39;53.66;94520.66;4136245;28;20468;-56
2022/05/03 09:44:09;;;;;;;2.95;1.92;;;;;;;13.18;53.86;94521.31;4142984;28;20283;-54
2022/05/03 09:46:10;;;;;;;2.70;1.95;;;;;;;13.20;54.22;94526.41;4142845;28;20050;-54
2022/05/03 09:48:12;;;;;;;4.95;2.20;;;;;;;13.30;54.73;94527.00;4127583;28;20074;-56
2022/05/03 09:50:32;;;;;;;3.60;2.33;;;;;;;13.32;53.88;94514.50;4111567;28;20054;-54
2022/05/03 09:52:40;;;;;;;6.90;2.08;;;;;;;13.43;53.74;94524.56;4110474;28;20070;-55
2022/05/03 09:54:49;;;;;;;5.47;2.20;;;;;;;13.23;54.42;94520.81;4108913;28;20140;-56
2022/05/03 09:56:54;;;;;;;2.67;1.98;;;;;;;13.62;53.14;94522.41;4110207;28;20047;-52
2022/05/03 09:59:01;;;;;;;5.40;2.05;;;;;;;13.79;52.09;94515.94;4110706;28;20058;-55
2022/05/03 10:01:03;;;;;;;4.03;2.10;;;;;;;13.60;52.63;94512.03;4109044;28;20665;-55
2022/05/03 10:03:09;;;;;;;4.50;2.05;;;;;;;13.73;52.62;94511.41;4108542;28;20114;-55
2022/05/03 10:05:12;;;;;;;4.35;2.33;;;;;;;13.78;53.19;94516.91;4110388;28;20054;-54
2022/05/03 10:07:14;;;;;;;2.92;1.80;;;;;;;13.49;52.62;94515.13;4124849;28;20136;-56
2022/05/03 10:09:16;;;;;;;3.00;2.22;;;;;;;13.60;54.17;94519.13;4130677;28;20054;-54
2022/05/03 10:11:18;;;;;;;2.45;2.00;;;;;;;13.73;53.32;94522.75;4141204;28;20450;-54
2022/05/03 10:13:20;;;;;;;2.85;2.15;;;;;;;13.78;52.19;94514.28;4142498;28;20967;-57
2022/05/03 10:20:46;;;;;;;2.45;1.85;;;;;;;13.36;51.54;94515.75;4141326;28;20053;-50
2022/05/03 10:22:49;;;;;;;4.18;2.10;;;;;;;13.48;51.79;94519.56;4124568;28;20427;-54
2022/05/03 10:24:58;;;;;;;4.63;2.10;;;;;;;13.58;52.17;94523.75;4126037;28;20648;-52